Oski — WYD3004 — position and weather

sailwx.info

Track history (hours):
 
Tides and Currents Weather Stations Pressure Air Temp Water Temp Dewpoint Dewpoint Depression Visibility Wind Speed Wind Dir Waves Ship Positions

Oski

Owner: BLUE & GOLD FLEET, SAN FRANCISCO, CA. More information available from US FCC via Universal Licensing System and Coast Guard Vessel Documentation Center.

Last reported at 2016-Jun-30 06:25 UTC. Time now 2016-Jun-30 06:59 UTC.
Position N 37°49' W 122°25'.

Length 24 m; draft 2 m.

Type: Passenger vessel. MMSI: 366985320.

Date/timePositionNaut miles runAvg speedWind from/ knotsBaromVisibWave heightAir tempDewpointWater temp
2016-Jun-30 06:25N 37°49' W 122°25'0 0.0
2016-Jun-30 05:27N 37°49' W 122°25'0 0.0
2016-Jun-30 04:33N 37°49' W 122°25'0 0.0
2016-Jun-30 03:32N 37°49' W 122°25'0 0.0
2016-Jun-30 02:31N 37°49' W 122°25'0 0.0
2016-Jun-30 01:31N 37°49' W 122°25'2 2.2
2016-Jun-30 00:33N 37°49' W 122°27'2 2.1
2016-Jun-29 23:33N 37°49' W 122°25'0 0.0
2016-Jun-29 22:33N 37°49' W 122°25'2 2.1
2016-Jun-29 21:33N 37°50' W 122°27'2 1.9
2016-Jun-29 20:33N 37°49' W 122°25'1 0.6
2016-Jun-29 19:32N 37°49' W 122°25'0 0.0
2016-Jun-29 18:31N 37°49' W 122°25'0 0.0
2016-Jun-29 17:22N 37°49' W 122°25'0 0.0
2016-Jun-29 16:28N 37°49' W 122°25'0 0.0
2016-Jun-29 15:33N 37°49' W 122°25'0 0.0
2016-Jun-29 14:27N 37°49' W 122°25'0 0.0
2016-Jun-29 13:31N 37°49' W 122°25'0 0.0
2016-Jun-29 12:29N 37°49' W 122°25'0 0.0
2016-Jun-29 11:32N 37°49' W 122°25'0 0.0
2016-Jun-29 10:28N 37°49' W 122°25'0 0.0
2016-Jun-29 09:30N 37°49' W 122°25'0 0.0
2016-Jun-29 08:32N 37°49' W 122°25'0 0.0
2016-Jun-29 07:32N 37°49' W 122°25'0 0.0
2016-Jun-29 06:24N 37°49' W 122°25'0 0.0
2016-Jun-29 05:33N 37°49' W 122°25'0 0.0
2016-Jun-29 04:27N 37°49' W 122°25'0 0.0
2016-Jun-29 03:33N 37°49' W 122°25'0 0.0
2016-Jun-29 02:28N 37°49' W 122°25'0 0.0
2016-Jun-29 01:31N 37°49' W 122°25'2 2.4
2016-Jun-29 00:33N 37°49' W 122°28'2 2.3
2016-Jun-28 23:33N 37°49' W 122°25'0 0.0
2016-Jun-28 22:33N 37°49' W 122°25'2 2.2
2016-Jun-28 21:33N 37°50' W 122°27'2 2.3
2016-Jun-28 20:33N 37°49' W 122°24'1 0.5
2016-Jun-28 19:33N 37°49' W 122°25'0 0.0
2016-Jun-28 18:33N 37°49' W 122°25'0 0.0
2016-Jun-28 17:33N 37°49' W 122°25'0 0.0
2016-Jun-28 16:33N 37°49' W 122°25'0 0.0
2016-Jun-28 15:33N 37°49' W 122°25'0 0.0
2016-Jun-28 14:32N 37°49' W 122°25'0 0.0
2016-Jun-28 13:33N 37°49' W 122°25'0 0.0
2016-Jun-28 12:33N 37°49' W 122°25'0 0.0
2016-Jun-28 11:33N 37°49' W 122°25'0 0.0
2016-Jun-28 10:33N 37°49' W 122°25'0 0.0
2016-Jun-28 09:33N 37°49' W 122°25'0 0.0
2016-Jun-28 08:33N 37°49' W 122°25'0 0.0
2016-Jun-28 07:33N 37°49' W 122°25'0 0.0
2016-Jun-28 06:33N 37°49' W 122°25'0 0.0
2016-Jun-28 04:33N 37°49' W 122°25'0 0.0
2016-Jun-28 03:33N 37°49' W 122°25'0 0.0
2016-Jun-28 02:33N 37°49' W 122°25'3 2.6
2016-Jun-28 01:33N 37°49' W 122°28'3 2.6
2016-Jun-28 00:32N 37°49' W 122°25'0 0.0
2016-Jun-27 23:33N 37°49' W 122°25'0 0.0
2016-Jun-27 22:32N 37°49' W 122°25'2 1.9
2016-Jun-27 21:33N 37°50' W 122°27'2 2.0
2016-Jun-27 20:34N 37°49' W 122°24'0 0.3
2016-Jun-27 19:33N 37°49' W 122°25'0 0.0
2016-Jun-27 18:28N 37°49' W 122°25'0 0.0
2016-Jun-27 17:30N 37°49' W 122°25'0 0.0
2016-Jun-27 16:17N 37°49' W 122°25'0 0.0
2016-Jun-27 15:15N 37°49' W 122°25'0 0.0
2016-Jun-27 14:21N 37°49' W 122°25'0 0.0
2016-Jun-27 13:31N 37°49' W 122°25'0 0.0
2016-Jun-27 12:12N 37°49' W 122°25'0 0.0
2016-Jun-27 11:32N 37°49' W 122°25'0 0.0
2016-Jun-27 10:31N 37°49' W 122°25'0 0.0
2016-Jun-27 09:31N 37°49' W 122°25'0 0.0
2016-Jun-27 08:33N 37°49' W 122°25'0 0.0
2016-Jun-27 07:32N 37°49' W 122°25'0 0.0
2016-Jun-27 06:29N 37°49' W 122°25'0 0.0
2016-Jun-27 05:30N 37°49' W 122°25'0 0.0
2016-Jun-27 04:32N 37°49' W 122°25'0 0.0
2016-Jun-27 03:32N 37°49' W 122°25'0 0.0
2016-Jun-27 02:31N 37°49' W 122°25'0 0.0
2016-Jun-27 01:33N 37°49' W 122°25'2 2.2
2016-Jun-27 00:33N 37°49' W 122°27'2 2.1
2016-Jun-26 23:31N 37°49' W 122°25'0 0.0
2016-Jun-26 22:33N 37°49' W 122°25'3 2.5
2016-Jun-26 21:33N 37°49' W 122°28'2 2.4
2016-Jun-26 20:33N 37°49' W 122°25'1 0.6
2016-Jun-26 19:31N 37°49' W 122°25'0 0.0
2016-Jun-26 18:26N 37°49' W 122°25'0 0.0
2016-Jun-26 17:28N 37°49' W 122°25'0 0.0
2016-Jun-26 16:21N 37°49' W 122°25'0 0.0
2016-Jun-26 15:15N 37°49' W 122°25'0 0.0
2016-Jun-26 14:33N 37°49' W 122°25'0 0.0
2016-Jun-26 13:25N 37°49' W 122°25'0 0.0
2016-Jun-26 12:29N 37°49' W 122°25'0 0.0
2016-Jun-26 11:22N 37°49' W 122°25'0 0.0
2016-Jun-26 10:30N 37°49' W 122°25'0 0.0
2016-Jun-26 09:19N 37°49' W 122°25'0 0.0
2016-Jun-26 08:33N 37°49' W 122°25'0 0.0
2016-Jun-26 07:20N 37°49' W 122°25'0 0.0
2016-Jun-26 06:30N 37°49' W 122°25'0 0.0
2016-Jun-26 05:29N 37°49' W 122°25'0 0.0
2016-Jun-26 04:25N 37°49' W 122°25'0 0.0
2016-Jun-26 03:32N 37°49' W 122°25'0 0.0
2016-Jun-26 02:28N 37°49' W 122°25'0 0.0
2016-Jun-26 01:25N 37°49' W 122°25'2 2.8
2016-Jun-26 00:34N 37°49' W 122°28'2 2.5
2016-Jun-25 23:33N 37°49' W 122°25'0 0.0
2016-Jun-25 22:34N 37°49' W 122°25'2 2.5
2016-Jun-25 21:33N 37°50' W 122°27'3 2.6
2016-Jun-25 20:34N 37°49' W 122°24'0 0.5
2016-Jun-25 19:33N 37°49' W 122°25'0 0.0
2016-Jun-25 18:33N 37°49' W 122°25'0 0.0
2016-Jun-25 17:33N 37°49' W 122°25'0 0.0
2016-Jun-25 16:33N 37°49' W 122°25'0 0.0
2016-Jun-25 15:33N 37°49' W 122°25'0 0.0
2016-Jun-25 14:33N 37°49' W 122°25'0 0.0
2016-Jun-25 13:33N 37°49' W 122°25'0 0.0
2016-Jun-25 12:33N 37°49' W 122°25'0 0.0
2016-Jun-25 11:33N 37°49' W 122°25'0 0.0
2016-Jun-25 10:33N 37°49' W 122°25'0 0.0
2016-Jun-25 09:33N 37°49' W 122°25'0 0.0
2016-Jun-25 08:33N 37°49' W 122°25'0 0.0
2016-Jun-25 07:33N 37°49' W 122°25'0 0.0
2016-Jun-25 06:33N 37°49' W 122°25'0 0.0
2016-Jun-25 05:33N 37°49' W 122°25'0 0.0
2016-Jun-25 04:33N 37°49' W 122°25'0 0.0
2016-Jun-25 03:33N 37°49' W 122°25'0 0.0
2016-Jun-25 02:33N 37°49' W 122°25'0 0.0
2016-Jun-25 01:33N 37°49' W 122°25'3 2.5
2016-Jun-25 00:33N 37°49' W 122°28'3 2.5
2016-Jun-24 23:33N 37°49' W 122°25'0 0.0
2016-Jun-24 22:33N 37°49' W 122°25'2 2.4
2016-Jun-24 21:33N 37°50' W 122°27'2 2.4
2016-Jun-24 20:33N 37°49' W 122°24'1 0.5
2016-Jun-24 19:32N 37°49' W 122°25'0 0.0
2016-Jun-23 18:20N 37°49' W 122°25'1 1.3
2016-Jun-23 17:16N 37°50' W 122°26'1 0.1
2016-Jun-23 02:05N 37°49' W 122°24'3 4.7
2016-Jun-23 01:33N 37°49' W 122°28'2 1.6
2016-Jun-23 00:14N 37°50' W 122°25'1 0.9
2016-Jun-22 23:06N 37°49' W 122°25'2 3.7
2016-Jun-22 22:32N 37°49' W 122°27'2 1.5
2016-Jun-22 21:10N 37°49' W 122°25'2 3.2
2016-Jun-22 20:33N 37°49' W 122°27'1 1.1
2016-Jun-22 19:25N 37°50' W 122°26'1 0.1
2016-Jun-22 00:19N 37°49' W 122°24'0 0.3
2016-Jun-21 23:07N 37°49' W 122°25'2 4.1
2016-Jun-21 22:33N 37°49' W 122°28'2 1.7
2016-Jun-21 21:07N 37°49' W 122°25'2 3.7
2016-Jun-21 20:33N 37°49' W 122°27'3 2.5
2016-Jun-21 19:33N 37°49' W 122°24'1 0.2
2016-Jun-21 16:33N 37°49' W 122°25'0 0.0
2016-Jun-21 15:33N 37°49' W 122°25'0 0.0
2016-Jun-21 14:33N 37°49' W 122°25'0 0.0
2016-Jun-21 13:33N 37°49' W 122°25'0 0.0
2016-Jun-21 12:33N 37°49' W 122°25'0 0.0
2016-Jun-21 11:33N 37°49' W 122°25'0 0.0
2016-Jun-21 10:33N 37°49' W 122°25'0 0.0
2016-Jun-21 09:33N 37°49' W 122°25'0 0.0
2016-Jun-21 08:33N 37°49' W 122°25'0 0.0
2016-Jun-21 07:33N 37°49' W 122°25'0 0.0
2016-Jun-21 06:33N 37°49' W 122°25'0 0.0
2016-Jun-21 04:33N 37°49' W 122°25'0 0.0
2016-Jun-21 03:33N 37°49' W 122°25'2 1.6
2016-Jun-21 02:33N 37°48' W 122°23'2 2.0
2016-Jun-21 01:33N 37°48' W 122°20'4 3.6
2016-Jun-21 00:33N 37°49' W 122°25'0 0.1
2016-Jun-20 23:33N 37°49' W 122°25'3 2.5
2016-Jun-20 22:33N 37°49' W 122°28'3 2.6
2016-Jun-20 21:33N 37°49' W 122°25'2 2.4
2016-Jun-20 20:33N 37°49' W 122°28'2 2.3
2016-Jun-20 19:34N 37°50' W 122°25'1 0.8
2016-Jun-20 18:33N 37°49' W 122°25'0 0.2
2016-Jun-20 17:33N 37°49' W 122°24'0 0.1
2016-Jun-20 15:28N 37°49' W 122°25'0 0.0
2016-Jun-20 13:30N 37°49' W 122°25'0 0.0
2016-Jun-20 09:11N 37°49' W 122°25'0 0.0
2016-Jun-20 08:18N 37°49' W 122°25'0 0.0
2016-Jun-20 07:27N 37°49' W 122°25'0 0.0
2016-Jun-20 06:32N 37°49' W 122°25'  
Track history (hours):
 
Tides and Currents Weather Stations Pressure Air Temp Water Temp Dewpoint Dewpoint Depression Visibility Wind Speed Wind Dir Waves Ship Positions

Oski

Owner: BLUE & GOLD FLEET, SAN FRANCISCO, CA. More information available from US FCC via Universal Licensing System and Coast Guard Vessel Documentation Center.

Last reported at 2016-Jun-30 06:25 UTC. Time now 2016-Jun-30 06:59 UTC.
Position N 37°49' W 122°25'.

Length 24 m; draft 2 m.

Type: Passenger vessel. MMSI: 366985320.

Date/timePositionNaut miles runAvg speedWind from/ knotsBaromVisibWave heightAir tempDewpointWater temp
2016-Jun-30 06:25N 37°49' W 122°25'0 0.0
2016-Jun-30 05:27N 37°49' W 122°25'0 0.0
2016-Jun-30 04:33N 37°49' W 122°25'0 0.0
2016-Jun-30 03:32N 37°49' W 122°25'0 0.0
2016-Jun-30 02:31N 37°49' W 122°25'0 0.0
2016-Jun-30 01:31N 37°49' W 122°25'2 2.2
2016-Jun-30 00:33N 37°49' W 122°27'2 2.1
2016-Jun-29 23:33N 37°49' W 122°25'0 0.0
2016-Jun-29 22:33N 37°49' W 122°25'2 2.1
2016-Jun-29 21:33N 37°50' W 122°27'2 1.9
2016-Jun-29 20:33N 37°49' W 122°25'1 0.6
2016-Jun-29 19:32N 37°49' W 122°25'0 0.0
2016-Jun-29 18:31N 37°49' W 122°25'0 0.0
2016-Jun-29 17:22N 37°49' W 122°25'0 0.0
2016-Jun-29 16:28N 37°49' W 122°25'0 0.0
2016-Jun-29 15:33N 37°49' W 122°25'0 0.0
2016-Jun-29 14:27N 37°49' W 122°25'0 0.0
2016-Jun-29 13:31N 37°49' W 122°25'0 0.0
2016-Jun-29 12:29N 37°49' W 122°25'0 0.0
2016-Jun-29 11:32N 37°49' W 122°25'0 0.0
2016-Jun-29 10:28N 37°49' W 122°25'0 0.0
2016-Jun-29 09:30N 37°49' W 122°25'0 0.0
2016-Jun-29 08:32N 37°49' W 122°25'0 0.0
2016-Jun-29 07:32N 37°49' W 122°25'0 0.0
2016-Jun-29 06:24N 37°49' W 122°25'0 0.0
2016-Jun-29 05:33N 37°49' W 122°25'0 0.0
2016-Jun-29 04:27N 37°49' W 122°25'0 0.0
2016-Jun-29 03:33N 37°49' W 122°25'0 0.0
2016-Jun-29 02:28N 37°49' W 122°25'0 0.0
2016-Jun-29 01:31N 37°49' W 122°25'2 2.4
2016-Jun-29 00:33N 37°49' W 122°28'2 2.3
2016-Jun-28 23:33N 37°49' W 122°25'0 0.0
2016-Jun-28 22:33N 37°49' W 122°25'2 2.2
2016-Jun-28 21:33N 37°50' W 122°27'2 2.3
2016-Jun-28 20:33N 37°49' W 122°24'1 0.5
2016-Jun-28 19:33N 37°49' W 122°25'0 0.0
2016-Jun-28 18:33N 37°49' W 122°25'0 0.0
2016-Jun-28 17:33N 37°49' W 122°25'0 0.0
2016-Jun-28 16:33N 37°49' W 122°25'0 0.0
2016-Jun-28 15:33N 37°49' W 122°25'0 0.0
2016-Jun-28 14:32N 37°49' W 122°25'0 0.0
2016-Jun-28 13:33N 37°49' W 122°25'0 0.0
2016-Jun-28 12:33N 37°49' W 122°25'0 0.0
2016-Jun-28 11:33N 37°49' W 122°25'0 0.0
2016-Jun-28 10:33N 37°49' W 122°25'0 0.0
2016-Jun-28 09:33N 37°49' W 122°25'0 0.0
2016-Jun-28 08:33N 37°49' W 122°25'0 0.0
2016-Jun-28 07:33N 37°49' W 122°25'0 0.0
2016-Jun-28 06:33N 37°49' W 122°25'0 0.0
2016-Jun-28 04:33N 37°49' W 122°25'0 0.0
2016-Jun-28 03:33N 37°49' W 122°25'0 0.0
2016-Jun-28 02:33N 37°49' W 122°25'3 2.6
2016-Jun-28 01:33N 37°49' W 122°28'3 2.6
2016-Jun-28 00:32N 37°49' W 122°25'0 0.0
2016-Jun-27 23:33N 37°49' W 122°25'0 0.0
2016-Jun-27 22:32N 37°49' W 122°25'2 1.9
2016-Jun-27 21:33N 37°50' W 122°27'2 2.0
2016-Jun-27 20:34N 37°49' W 122°24'0 0.3
2016-Jun-27 19:33N 37°49' W 122°25'0 0.0
2016-Jun-27 18:28N 37°49' W 122°25'0 0.0
2016-Jun-27 17:30N 37°49' W 122°25'0 0.0
2016-Jun-27 16:17N 37°49' W 122°25'0 0.0
2016-Jun-27 15:15N 37°49' W 122°25'0 0.0
2016-Jun-27 14:21N 37°49' W 122°25'0 0.0
2016-Jun-27 13:31N 37°49' W 122°25'0 0.0
2016-Jun-27 12:12N 37°49' W 122°25'0 0.0
2016-Jun-27 11:32N 37°49' W 122°25'0 0.0
2016-Jun-27 10:31N 37°49' W 122°25'0 0.0
2016-Jun-27 09:31N 37°49' W 122°25'0 0.0
2016-Jun-27 08:33N 37°49' W 122°25'0 0.0
2016-Jun-27 07:32N 37°49' W 122°25'0 0.0
2016-Jun-27 06:29N 37°49' W 122°25'0 0.0
2016-Jun-27 05:30N 37°49' W 122°25'0 0.0
2016-Jun-27 04:32N 37°49' W 122°25'0 0.0
2016-Jun-27 03:32N 37°49' W 122°25'0 0.0
2016-Jun-27 02:31N 37°49' W 122°25'0 0.0
2016-Jun-27 01:33N 37°49' W 122°25'2 2.2
2016-Jun-27 00:33N 37°49' W 122°27'2 2.1
2016-Jun-26 23:31N 37°49' W 122°25'0 0.0
2016-Jun-26 22:33N 37°49' W 122°25'3 2.5
2016-Jun-26 21:33N 37°49' W 122°28'2 2.4
2016-Jun-26 20:33N 37°49' W 122°25'1 0.6
2016-Jun-26 19:31N 37°49' W 122°25'0 0.0
2016-Jun-26 18:26N 37°49' W 122°25'0 0.0
2016-Jun-26 17:28N 37°49' W 122°25'0 0.0
2016-Jun-26 16:21N 37°49' W 122°25'0 0.0
2016-Jun-26 15:15N 37°49' W 122°25'0 0.0
2016-Jun-26 14:33N 37°49' W 122°25'0 0.0
2016-Jun-26 13:25N 37°49' W 122°25'0 0.0
2016-Jun-26 12:29N 37°49' W 122°25'0 0.0
2016-Jun-26 11:22N 37°49' W 122°25'0 0.0
2016-Jun-26 10:30N 37°49' W 122°25'0 0.0
2016-Jun-26 09:19N 37°49' W 122°25'0 0.0
2016-Jun-26 08:33N 37°49' W 122°25'0 0.0
2016-Jun-26 07:20N 37°49' W 122°25'0 0.0
2016-Jun-26 06:30N 37°49' W 122°25'0 0.0
2016-Jun-26 05:29N 37°49' W 122°25'0 0.0
2016-Jun-26 04:25N 37°49' W 122°25'0 0.0
2016-Jun-26 03:32N 37°49' W 122°25'0 0.0
2016-Jun-26 02:28N 37°49' W 122°25'0 0.0
2016-Jun-26 01:25N 37°49' W 122°25'2 2.8
2016-Jun-26 00:34N 37°49' W 122°28'2 2.5
2016-Jun-25 23:33N 37°49' W 122°25'0 0.0
2016-Jun-25 22:34N 37°49' W 122°25'2 2.5
2016-Jun-25 21:33N 37°50' W 122°27'3 2.6
2016-Jun-25 20:34N 37°49' W 122°24'0 0.5
2016-Jun-25 19:33N 37°49' W 122°25'0 0.0
2016-Jun-25 18:33N 37°49' W 122°25'0 0.0
2016-Jun-25 17:33N 37°49' W 122°25'0 0.0
2016-Jun-25 16:33N 37°49' W 122°25'0 0.0
2016-Jun-25 15:33N 37°49' W 122°25'0 0.0
2016-Jun-25 14:33N 37°49' W 122°25'0 0.0
2016-Jun-25 13:33N 37°49' W 122°25'0 0.0
2016-Jun-25 12:33N 37°49' W 122°25'0 0.0
2016-Jun-25 11:33N 37°49' W 122°25'0 0.0
2016-Jun-25 10:33N 37°49' W 122°25'0 0.0
2016-Jun-25 09:33N 37°49' W 122°25'0 0.0
2016-Jun-25 08:33N 37°49' W 122°25'0 0.0
2016-Jun-25 07:33N 37°49' W 122°25'0 0.0
2016-Jun-25 06:33N 37°49' W 122°25'0 0.0
2016-Jun-25 05:33N 37°49' W 122°25'0 0.0
2016-Jun-25 04:33N 37°49' W 122°25'0 0.0
2016-Jun-25 03:33N 37°49' W 122°25'0 0.0
2016-Jun-25 02:33N 37°49' W 122°25'0 0.0
2016-Jun-25 01:33N 37°49' W 122°25'3 2.5
2016-Jun-25 00:33N 37°49' W 122°28'3 2.5
2016-Jun-24 23:33N 37°49' W 122°25'0 0.0
2016-Jun-24 22:33N 37°49' W 122°25'2 2.4
2016-Jun-24 21:33N 37°50' W 122°27'2 2.4
2016-Jun-24 20:33N 37°49' W 122°24'1 0.5
2016-Jun-24 19:32N 37°49' W 122°25'0 0.0
2016-Jun-23 18:20N 37°49' W 122°25'1 1.3
2016-Jun-23 17:16N 37°50' W 122°26'1 0.1
2016-Jun-23 02:05N 37°49' W 122°24'3 4.7
2016-Jun-23 01:33N 37°49' W 122°28'2 1.6
2016-Jun-23 00:14N 37°50' W 122°25'1 0.9
2016-Jun-22 23:06N 37°49' W 122°25'2 3.7
2016-Jun-22 22:32N 37°49' W 122°27'2 1.5
2016-Jun-22 21:10N 37°49' W 122°25'2 3.2
2016-Jun-22 20:33N 37°49' W 122°27'1 1.1
2016-Jun-22 19:25N 37°50' W 122°26'1 0.1
2016-Jun-22 00:19N 37°49' W 122°24'0 0.3
2016-Jun-21 23:07N 37°49' W 122°25'2 4.1
2016-Jun-21 22:33N 37°49' W 122°28'2 1.7
2016-Jun-21 21:07N 37°49' W 122°25'2 3.7
2016-Jun-21 20:33N 37°49' W 122°27'3 2.5
2016-Jun-21 19:33N 37°49' W 122°24'1 0.2
2016-Jun-21 16:33N 37°49' W 122°25'0 0.0
2016-Jun-21 15:33N 37°49' W 122°25'0 0.0
2016-Jun-21 14:33N 37°49' W 122°25'0 0.0
2016-Jun-21 13:33N 37°49' W 122°25'0 0.0
2016-Jun-21 12:33N 37°49' W 122°25'0 0.0
2016-Jun-21 11:33N 37°49' W 122°25'0 0.0
2016-Jun-21 10:33N 37°49' W 122°25'0 0.0
2016-Jun-21 09:33N 37°49' W 122°25'0 0.0
2016-Jun-21 08:33N 37°49' W 122°25'0 0.0
2016-Jun-21 07:33N 37°49' W 122°25'0 0.0
2016-Jun-21 06:33N 37°49' W 122°25'0 0.0
2016-Jun-21 04:33N 37°49' W 122°25'0 0.0
2016-Jun-21 03:33N 37°49' W 122°25'2 1.6
2016-Jun-21 02:33N 37°48' W 122°23'2 2.0
2016-Jun-21 01:33N 37°48' W 122°20'4 3.6
2016-Jun-21 00:33N 37°49' W 122°25'0 0.1
2016-Jun-20 23:33N 37°49' W 122°25'3 2.5
2016-Jun-20 22:33N 37°49' W 122°28'3 2.6
2016-Jun-20 21:33N 37°49' W 122°25'2 2.4
2016-Jun-20 20:33N 37°49' W 122°28'2 2.3
2016-Jun-20 19:34N 37°50' W 122°25'1 0.8
2016-Jun-20 18:33N 37°49' W 122°25'0 0.2
2016-Jun-20 17:33N 37°49' W 122°24'0 0.1
2016-Jun-20 15:28N 37°49' W 122°25'0 0.0
2016-Jun-20 13:30N 37°49' W 122°25'0 0.0
2016-Jun-20 09:11N 37°49' W 122°25'0 0.0
2016-Jun-20 08:18N 37°49' W 122°25'0 0.0
2016-Jun-20 07:27N 37°49' W 122°25'0 0.0
2016-Jun-20 06:32N 37°49' W 122°25'  

Dump ship's entire track history